M I D A S
Marine Information and Data Acquisition System
Tripno 1325 of the Zeeleeuw from 2007-08-21 06:48:31 to 2007-08-21 15:05:53
Back to CruiseResearch ActivitiesStationsMapUnderway DataData graphs

EquipmentUnitsComment
TimeDGPSUTC
LatitudeDGPSDM.mWGS84
LongitudeDGPSDM.mWGS84
TemperatureSBE03/SBE38deg celciusITS90
ConductivitySBE21S/mITS90
SalinitySBE21 Practical Salinity Units
ChlorophylAChelsea fluorimeterµg/lCalibrated in Aceton
Missing or incorrect values are displayed as -999
Sea surface data collected by the RV Zeeleeuw from 2007-08-21 06:43:33 to 2007-08-21 15:17:15
Time Latitude Longitude Temperature Conductivity Salinity ChlorophylA
2007-08-21 06:44:38 51°13.601 2°56.101 -999 -999 -999 -999
2007-08-21 06:45:38 51°13.603 2°56.088 -999 -999 -999 -999
2007-08-21 06:46:38 51°13.632 2°56.003 -999 -999 -999 -999
2007-08-21 06:47:38 51°13.675 2°55.888 -999 -999 -999 -999
2007-08-21 06:48:38 51°13.695 2°55.791 -999 -999 -999 -999
2007-08-21 06:49:38 51°13.697 2°55.722 -999 -999 -999 -999
2007-08-21 06:50:38 51°13.699 2°55.713 -999 -999 -999 -999
2007-08-21 06:51:38 51°13.749 2°55.696 -999 -999 -999 -999
2007-08-21 06:52:38 51°13.842 2°55.628 -999 -999 -999 -999
2007-08-21 06:53:38 51°13.946 2°55.551 -999 -999 -999 -999
2007-08-21 06:54:38 51°14.033 2°55.488 -999 -999 -999 -999
2007-08-21 06:55:38 51°14.113 2°55.425 -999 -999 -999 -999
2007-08-21 06:56:38 51°14.194 2°55.35 -999 -999 -999 -999
2007-08-21 06:57:39 51°14.273 2°55.24 -999 -999 -999 -999
2007-08-21 06:58:38 51°14.366 2°55.035 -999 -999 -999 -999
2007-08-21 06:59:39 51°14.43 2°54.746 -999 -999 -999 -999
2007-08-21 07:00:39 51°14.408 2°54.464 -999 -999 -999 -999
2007-08-21 07:01:38 51°14.324 2°54.217 -999 -999 -999 -999
2007-08-21 07:02:39 51°14.234 2°53.961 -999 -999 -999 -999
2007-08-21 07:03:39 51°14.148 2°53.711 -999 -999 -999 -999
2007-08-21 07:04:39 51°14.061 2°53.459 -999 -999 -999 -999
2007-08-21 07:05:38 51°13.978 2°53.211 -999 -999 -999 -999
2007-08-21 07:06:38 51°13.892 2°52.958 -999 -999 -999 -999
2007-08-21 07:07:38 51°13.801 2°52.684 -999 -999 -999 -999
2007-08-21 07:08:39 51°13.699 2°52.408 -999 -999 -999 -999
2007-08-21 07:09:38 51°13.599 2°52.14 -999 -999 -999 -999
2007-08-21 07:10:38 51°13.5 2°51.867 -999 -999 -999 -999
2007-08-21 07:11:39 51°13.397 2°51.589 -999 -999 -999 -999
2007-08-21 07:12:38 51°13.298 2°51.321 -999 -999 -999 -999
2007-08-21 07:13:39 51°13.194 2°51.043 -999 -999 -999 -999
2007-08-21 07:14:38 51°13.096 2°50.771 -999 -999 -999 -999
2007-08-21 07:15:39 51°12.994 2°50.488 -999 -999 -999 -999
2007-08-21 07:16:38 51°12.894 2°50.216 -999 -999 -999 -999
2007-08-21 07:17:38 51°12.793 2°49.938 -999 -999 -999 -999
2007-08-21 07:18:39 51°12.688 2°49.657 -999 -999 -999 -999
2007-08-21 07:19:39 51°12.585 2°49.379 -999 -999 -999 -999
2007-08-21 07:20:39 51°12.492 2°49.091 -999 -999 -999 -999
2007-08-21 07:21:38 51°12.402 2°48.808 -999 -999 -999 -999
2007-08-21 07:22:39 51°12.311 2°48.512 -999 -999 -999 -999
2007-08-21 07:23:38 51°12.238 2°48.214 -999 -999 -999 -999
2007-08-21 07:24:39 51°12.165 2°47.904 -999 -999 -999 -999
2007-08-21 07:25:38 51°12.092 2°47.608 -999 -999 -999 -999
2007-08-21 07:26:38 51°12.018 2°47.304 -999 -999 -999 -999
2007-08-21 07:27:39 51°11.943 2°46.995 -999 -999 -999 -999
2007-08-21 07:28:38 51°11.882 2°46.689 -999 -999 -999 -999
2007-08-21 07:29:39 51°11.82 2°46.373 -999 -999 -999 -999
2007-08-21 07:30:38 51°11.756 2°46.067 -999 -999 -999 -999
2007-08-21 07:31:39 51°11.689 2°45.752 -999 -999 -999 -999
2007-08-21 07:32:38 51°11.625 2°45.446 -999 -999 -999 -999
2007-08-21 07:33:39 51°11.557 2°45.13 -999 -999 -999 -999
2007-08-21 07:34:39 51°11.491 2°44.817 -999 -999 -999 -999
2007-08-21 07:35:39 51°11.425 2°44.504 -999 -999 -999 -999
2007-08-21 07:36:39 51°11.359 2°44.191 -999 -999 -999 -999
2007-08-21 07:37:38 51°11.292 2°43.884 -999 -999 -999 -999
2007-08-21 07:38:39 51°11.222 2°43.567 -999 -999 -999 -999
2007-08-21 07:39:39 51°11.155 2°43.254 -999 -999 -999 -999
2007-08-21 07:40:39 51°11.109 2°42.932 -999 -999 -999 -999
2007-08-21 07:41:39 51°11.111 2°42.636 -999 -999 -999 -999
2007-08-21 07:42:38 51°11.132 2°42.451 -999 -999 -999 -999
2007-08-21 07:43:39 51°11.127 2°42.279 -999 -999 -999 -999
2007-08-21 07:44:39 51°11.123 2°42.141 -999 -999 -999 -999
2007-08-21 07:45:39 51°11.125 2°42.066 -999 -999 -999 -999
2007-08-21 07:46:38 51°11.131 2°42.034 -999 -999 -999 -999
2007-08-21 07:47:39 51°11.136 2°42.015 -999 -999 -999 -999
2007-08-21 07:48:38 51°11.139 2°42.004 -999 -999 -999 -999
2007-08-21 07:49:39 51°11.151 2°41.958 -999 -999 -999 -999
2007-08-21 07:50:38 51°11.109 2°41.794 -999 -999 -999 -999
2007-08-21 07:51:39 51°11.014 2°41.511 -999 -999 -999 -999
2007-08-21 07:52:38 51°10.935 2°41.21 -999 -999 -999 -999
2007-08-21 07:53:38 51°10.854 2°40.905 -999 -999 -999 -999
2007-08-21 07:54:39 51°10.773 2°40.596 -999 -999 -999 -999
2007-08-21 07:55:39 51°10.695 2°40.29 -999 -999 -999 -999
2007-08-21 07:56:39 51°10.625 2°39.978 -999 -999 -999 -999
2007-08-21 07:57:38 51°10.557 2°39.672 -999 -999 -999 -999
2007-08-21 07:58:39 51°10.485 2°39.354 -999 -999 -999 -999
2007-08-21 07:59:38 51°10.416 2°39.045 -999 -999 -999 -999
2007-08-21 08:00:39 51°10.343 2°38.726 -999 -999 -999 -999
2007-08-21 08:01:39 51°10.272 2°38.412 -999 -999 -999 -999
2007-08-21 08:02:38 51°10.203 2°38.101 -999 -999 -999 -999
2007-08-21 08:03:39 51°10.13 2°37.779 -999 -999 -999 -999
2007-08-21 08:04:38 51°10.06 2°37.466 -999 -999 -999 -999
2007-08-21 08:05:39 51°9.989 2°37.14 -999 -999 -999 -999
2007-08-21 08:06:38 51°9.925 2°36.822 -999 -999 -999 -999
2007-08-21 08:07:39 51°9.861 2°36.491 -999 -999 -999 -999
2007-08-21 08:08:39 51°9.823 2°36.154 -999 -999 -999 -999
2007-08-21 08:09:39 51°9.798 2°35.813 -999 -999 -999 -999
2007-08-21 08:10:39 51°9.828 2°35.483 -999 -999 -999 -999
2007-08-21 08:11:39 51°9.969 2°35.24 -999 -999 -999 -999
2007-08-21 08:12:39 51°10.168 2°35.16 -999 -999 -999 -999
2007-08-21 08:13:38 51°10.368 2°35.221 -999 -999 -999 -999
2007-08-21 08:14:39 51°10.563 2°35.34 -999 -999 -999 -999
2007-08-21 08:15:39 51°10.748 2°35.479 -999 -999 -999 -999
2007-08-21 08:16:39 51°10.929 2°35.631 -999 -999 -999 -999
2007-08-21 08:17:39 51°11.107 2°35.786 -999 -999 -999 -999
2007-08-21 08:18:39 51°11.281 2°35.955 -999 -999 -999 -999
2007-08-21 08:19:39 51°11.456 2°36.124 -999 -999 -999 -999
2007-08-21 08:20:38 51°11.624 2°36.289 -999 -999 -999 -999
2007-08-21 08:21:39 51°11.796 2°36.467 -999 -999 -999 -999
2007-08-21 08:22:39 51°11.961 2°36.655 -999 -999 -999 -999
2007-08-21 08:23:39 51°12.121 2°36.849 -999 -999 -999 -999
2007-08-21 08:24:39 51°12.281 2°37.045 -999 -999 -999 -999
2007-08-21 08:25:39 51°12.442 2°37.237 -999 -999 -999 -999
2007-08-21 08:26:39 51°12.603 2°37.433 -999 -999 -999 -999
2007-08-21 08:27:39 51°12.753 2°37.646 -999 -999 -999 -999
2007-08-21 08:28:39 51°12.899 2°37.87 -999 -999 -999 -999
2007-08-21 08:29:38 51°13.043 2°38.091 -999 -999 -999 -999
2007-08-21 08:30:39 51°13.196 2°38.31 -999 -999 -999 -999
2007-08-21 08:31:39 51°13.352 2°38.519 -999 -999 -999 -999
2007-08-21 08:32:39 51°13.512 2°38.72 -999 -999 -999 -999
2007-08-21 08:33:39 51°13.68 2°38.901 -999 -999 -999 -999
2007-08-21 08:34:38 51°13.854 2°39.051 -999 -999 -999 -999
2007-08-21 08:35:39 51°14.055 2°39.139 -999 -999 -999 -999
2007-08-21 08:36:39 51°14.26 2°39.13 -999 -999 -999 -999
2007-08-21 08:37:39 51°14.456 2°39.016 -999 -999 -999 -999
2007-08-21 08:38:38 51°14.642 2°38.86 -999 -999 -999 -999
2007-08-21 08:39:39 51°14.832 2°38.7 -999 -999 -999 -999
2007-08-21 08:40:38 51°15.003 2°38.517 -999 -999 -999 -999
2007-08-21 08:41:39 51°15.18 2°38.323 -999 -999 -999 -999
2007-08-21 08:42:39 51°15.354 2°38.134 -999 -999 -999 -999
2007-08-21 08:43:39 51°15.528 2°37.944 -999 -999 -999 -999
2007-08-21 08:44:39 51°15.703 2°37.757 -999 -999 -999 -999
2007-08-21 08:45:39 51°15.882 2°37.573 -999 -999 -999 -999
2007-08-21 08:46:39 51°16.06 2°37.388 -999 -999 -999 -999
2007-08-21 08:47:39 51°16.24 2°37.202 -999 -999 -999 -999
2007-08-21 08:48:39 51°16.403 2°37.038 -999 -999 -999 -999
2007-08-21 08:49:39 51°16.493 2°36.952 -999 -999 -999 -999
2007-08-21 08:50:39 51°16.556 2°36.89 -999 -999 -999 -999
2007-08-21 08:51:39 51°16.591 2°36.813 -999 -999 -999 -999
2007-08-21 08:52:39 51°16.6 2°36.771 -999 -999 -999 -999
2007-08-21 08:53:39 51°16.606 2°36.74 -999 -999 -999 -999
2007-08-21 08:54:38 51°16.613 2°36.717 -999 -999 -999 -999
2007-08-21 08:55:39 51°16.617 2°36.695 -999 -999 -999 -999
2007-08-21 08:56:39 51°16.669 2°36.628 -999 -999 -999 -999
2007-08-21 08:57:39 51°16.767 2°36.462 -999 -999 -999 -999
2007-08-21 08:58:39 51°16.895 2°36.199 -999 -999 -999 -999
2007-08-21 08:59:39 51°17.025 2°35.929 -999 -999 -999 -999
2007-08-21 09:00:39 51°17.154 2°35.659 -999 -999 -999 -999
2007-08-21 09:01:39 51°17.281 2°35.388 -999 -999 -999 -999
2007-08-21 09:02:39 51°17.412 2°35.115 -999 -999 -999 -999
2007-08-21 09:03:39 51°17.543 2°34.838 -999 -999 -999 -999
2007-08-21 09:04:39 51°17.672 2°34.563 -999 -999 -999 -999
2007-08-21 09:05:39 51°17.805 2°34.291 -999 -999 -999 -999
2007-08-21 09:06:39 51°17.936 2°34.019 -999 -999 -999 -999
2007-08-21 09:07:39 51°18.063 2°33.746 -999 -999 -999 -999
2007-08-21 09:08:39 51°18.195 2°33.473 -999 -999 -999 -999
2007-08-21 09:09:39 51°18.327 2°33.201 -999 -999 -999 -999
2007-08-21 09:10:39 51°18.46 2°32.928 -999 -999 -999 -999
2007-08-21 09:11:39 51°18.591 2°32.653 -999 -999 -999 -999
2007-08-21 09:12:39 51°18.724 2°32.38 -999 -999 -999 -999
2007-08-21 09:13:39 51°18.857 2°32.108 -999 -999 -999 -999
2007-08-21 09:14:39 51°18.989 2°31.837 -999 -999 -999 -999
2007-08-21 09:15:39 51°19.123 2°31.565 -999 -999 -999 -999
2007-08-21 09:16:39 51°19.259 2°31.293 -999 -999 -999 -999
2007-08-21 09:17:39 51°19.39 2°31.018 -999 -999 -999 -999
2007-08-21 09:18:39 51°19.518 2°30.744 -999 -999 -999 -999
2007-08-21 09:19:39 51°19.662 2°30.485 -999 -999 -999 -999
2007-08-21 09:20:39 51°19.784 2°30.29 -999 -999 -999 -999
2007-08-21 09:21:39 51°19.879 2°30.139 -999 -999 -999 -999
2007-08-21 09:22:39 51°19.944 2°30.025 -999 -999 -999 -999
2007-08-21 09:23:39 51°19.985 2°29.977 -999 -999 -999 -999
2007-08-21 09:24:39 51°20.005 2°29.938 -999 -999 -999 -999
2007-08-21 09:25:39 51°20.016 2°29.904 -999 -999 -999 -999
2007-08-21 09:26:39 51°20.022 2°29.871 -999 -999 -999 -999
2007-08-21 09:27:39 51°20.026 2°29.839 -999 -999 -999 -999
2007-08-21 09:28:39 51°20.025 2°29.808 -999 -999 -999 -999
2007-08-21 09:29:39 51°20.022 2°29.779 -999 -999 -999 -999
2007-08-21 09:30:39 51°20.049 2°29.756 -999 -999 -999 -999
2007-08-21 09:31:39 51°20.113 2°29.853 -999 -999 -999 -999
2007-08-21 09:32:39 51°20.185 2°30.072 -999 -999 -999 -999
2007-08-21 09:33:39 51°20.28 2°30.333 -999 -999 -999 -999
2007-08-21 09:34:39 51°20.368 2°30.603 -999 -999 -999 -999
2007-08-21 09:35:39 51°20.448 2°30.879 -999 -999 -999 -999
2007-08-21 09:36:39 51°20.527 2°31.156 -999 -999 -999 -999
2007-08-21 09:37:39 51°20.606 2°31.439 -999 -999 -999 -999
2007-08-21 09:38:39 51°20.683 2°31.722 -999 -999 -999 -999
2007-08-21 09:39:39 51°20.761 2°32.009 -999 -999 -999 -999
2007-08-21 09:40:39 51°20.841 2°32.298 -999 -999 -999 -999
2007-08-21 09:41:39 51°20.921 2°32.588 -999 -999 -999 -999
2007-08-21 09:42:39 51°21.004 2°32.88 -999 -999 -999 -999
2007-08-21 09:43:39 51°21.087 2°33.169 -999 -999 -999 -999
2007-08-21 09:44:39 51°21.169 2°33.458 -999 -999 -999 -999
2007-08-21 09:45:39 51°21.253 2°33.746 -999 -999 -999 -999
2007-08-21 09:46:39 51°21.337 2°34.036 -999 -999 -999 -999
2007-08-21 09:47:39 51°21.423 2°34.322 -999 -999 -999 -999
2007-08-21 09:48:39 51°21.506 2°34.609 -999 -999 -999 -999
2007-08-21 09:49:39 51°21.59 2°34.896 -999 -999 -999 -999
2007-08-21 09:50:39 51°21.674 2°35.182 -999 -999 -999 -999
2007-08-21 09:51:39 51°21.757 2°35.466 -999 -999 -999 -999
2007-08-21 09:52:39 51°21.84 2°35.75 -999 -999 -999 -999
2007-08-21 09:53:39 51°21.923 2°36.031 -999 -999 -999 -999
2007-08-21 09:54:39 51°22.009 2°36.31 -999 -999 -999 -999
2007-08-21 09:55:39 51°22.097 2°36.587 -999 -999 -999 -999
2007-08-21 09:56:39 51°22.183 2°36.864 -999 -999 -999 -999
2007-08-21 09:57:39 51°22.27 2°37.141 -999 -999 -999 -999
2007-08-21 09:58:39 51°22.357 2°37.419 -999 -999 -999 -999
2007-08-21 09:59:39 51°22.444 2°37.698 -999 -999 -999 -999
2007-08-21 10:00:39 51°22.531 2°37.978 -999 -999 -999 -999
2007-08-21 10:01:39 51°22.617 2°38.259 -999 -999 -999 -999
2007-08-21 10:02:39 51°22.704 2°38.539 -999 -999 -999 -999
2007-08-21 10:03:39 51°22.79 2°38.821 -999 -999 -999 -999
2007-08-21 10:04:39 51°22.877 2°39.103 -999 -999 -999 -999
2007-08-21 10:05:39 51°22.97 2°39.381 -999 -999 -999 -999
2007-08-21 10:06:39 51°23.062 2°39.659 -999 -999 -999 -999
2007-08-21 10:07:39 51°23.153 2°39.939 -999 -999 -999 -999
2007-08-21 10:08:39 51°23.244 2°40.218 -999 -999 -999 -999
2007-08-21 10:09:39 51°23.337 2°40.495 -999 -999 -999 -999
2007-08-21 10:10:39 51°23.43 2°40.772 -999 -999 -999 -999
2007-08-21 10:11:39 51°23.524 2°41.048 -999 -999 -999 -999
2007-08-21 10:12:39 51°23.617 2°41.324 -999 -999 -999 -999
2007-08-21 10:13:39 51°23.71 2°41.6 -999 -999 -999 -999
2007-08-21 10:14:39 51°23.804 2°41.872 -999 -999 -999 -999
2007-08-21 10:15:39 51°23.899 2°42.143 -999 -999 -999 -999
2007-08-21 10:16:39 51°23.994 2°42.413 -999 -999 -999 -999
2007-08-21 10:17:39 51°24.088 2°42.683 -999 -999 -999 -999
2007-08-21 10:18:39 51°24.181 2°42.952 -999 -999 -999 -999
2007-08-21 10:19:39 51°24.274 2°43.219 -999 -999 -999 -999
2007-08-21 10:20:39 51°24.368 2°43.487 -999 -999 -999 -999
2007-08-21 10:21:39 51°24.46 2°43.756 -999 -999 -999 -999
2007-08-21 10:22:39 51°24.552 2°44.025 -999 -999 -999 -999
2007-08-21 10:23:39 51°24.643 2°44.292 -999 -999 -999 -999
2007-08-21 10:24:39 51°24.734 2°44.563 -999 -999 -999 -999
2007-08-21 10:25:39 51°24.825 2°44.838 -999 -999 -999 -999
2007-08-21 10:26:39 51°24.917 2°45.11 -999 -999 -999 -999
2007-08-21 10:27:39 51°25.009 2°45.38 -999 -999 -999 -999
2007-08-21 10:28:39 51°25.1 2°45.651 -999 -999 -999 -999
2007-08-21 10:29:39 51°25.191 2°45.923 -999 -999 -999 -999
2007-08-21 10:30:39 51°25.274 2°46.2 -999 -999 -999 -999
2007-08-21 10:31:39 51°25.353 2°46.482 -999 -999 -999 -999
2007-08-21 10:32:39 51°25.433 2°46.764 -999 -999 -999 -999
2007-08-21 10:33:39 51°25.511 2°47.05 -999 -999 -999 -999
2007-08-21 10:34:39 51°25.586 2°47.337 -999 -999 -999 -999
2007-08-21 10:35:39 51°25.659 2°47.626 -999 -999 -999 -999
2007-08-21 10:36:39 51°25.732 2°47.915 -999 -999 -999 -999
2007-08-21 10:37:39 51°25.787 2°48.121 -999 -999 -999 -999
2007-08-21 10:38:39 51°25.832 2°48.257 -999 -999 -999 -999
2007-08-21 10:39:39 51°25.904 2°48.33 -999 -999 -999 -999
2007-08-21 10:40:39 51°25.972 2°48.409 -999 -999 -999 -999
2007-08-21 10:41:39 51°25.996 2°48.476 -999 -999 -999 -999
2007-08-21 10:42:39 51°25.995 2°48.503 -999 -999 -999 -999
2007-08-21 10:43:39 51°25.987 2°48.519 -999 -999 -999 -999
2007-08-21 10:44:39 51°25.977 2°48.527 -999 -999 -999 -999
2007-08-21 10:45:39 51°25.968 2°48.53 -999 -999 -999 -999
2007-08-21 10:46:39 51°25.958 2°48.527 -999 -999 -999 -999
2007-08-21 10:47:39 51°25.95 2°48.533 -999 -999 -999 -999
2007-08-21 10:48:39 51°25.958 2°48.661 -999 -999 -999 -999
2007-08-21 10:49:39 51°25.992 2°48.955 -999 -999 -999 -999
2007-08-21 10:50:39 51°26.032 2°49.262 -999 -999 -999 -999
2007-08-21 10:51:39 51°26.079 2°49.567 -999 -999 -999 -999
2007-08-21 10:52:39 51°26.124 2°49.872 -999 -999 -999 -999
2007-08-21 10:53:39 51°26.175 2°50.175 -999 -999 -999 -999
2007-08-21 10:54:39 51°26.229 2°50.476 -999 -999 -999 -999
2007-08-21 10:55:39 51°26.28 2°50.78 -999 -999 -999 -999
2007-08-21 10:56:39 51°26.332 2°51.082 -999 -999 -999 -999
2007-08-21 10:57:39 51°26.382 2°51.388 -999 -999 -999 -999
2007-08-21 10:58:39 51°26.431 2°51.696 -999 -999 -999 -999
2007-08-21 10:59:39 51°26.479 2°52.004 -999 -999 -999 -999
2007-08-21 11:00:39 51°26.528 2°52.31 -999 -999 -999 -999
2007-08-21 11:01:39 51°26.576 2°52.617 -999 -999 -999 -999
2007-08-21 11:02:39 51°26.626 2°52.926 -999 -999 -999 -999
2007-08-21 11:03:39 51°26.676 2°53.237 -999 -999 -999 -999
2007-08-21 11:04:39 51°26.727 2°53.55 -999 -999 -999 -999
2007-08-21 11:05:39 51°26.777 2°53.861 -999 -999 -999 -999
2007-08-21 11:06:39 51°26.825 2°54.167 -999 -999 -999 -999
2007-08-21 11:07:39 51°26.871 2°54.469 -999 -999 -999 -999
2007-08-21 11:08:39 51°26.919 2°54.772 -999 -999 -999 -999
2007-08-21 11:09:39 51°26.967 2°55.078 -999 -999 -999 -999
2007-08-21 11:10:39 51°27.02 2°55.383 -999 -999 -999 -999
2007-08-21 11:11:39 51°27.068 2°55.692 -999 -999 -999 -999
2007-08-21 11:12:39 51°27.116 2°56 -999 -999 -999 -999
2007-08-21 11:13:39 51°27.163 2°56.304 -999 -999 -999 -999
2007-08-21 11:14:39 51°27.21 2°56.607 -999 -999 -999 -999
2007-08-21 11:15:39 51°27.258 2°56.908 -999 -999 -999 -999
2007-08-21 11:16:39 51°27.306 2°57.215 -999 -999 -999 -999
2007-08-21 11:17:39 51°27.354 2°57.525 -999 -999 -999 -999
2007-08-21 11:18:39 51°27.404 2°57.835 -999 -999 -999 -999
2007-08-21 11:19:39 51°27.455 2°58.144 -999 -999 -999 -999
2007-08-21 11:20:39 51°27.504 2°58.453 -999 -999 -999 -999
2007-08-21 11:21:39 51°27.555 2°58.762 -999 -999 -999 -999
2007-08-21 11:22:39 51°27.608 2°59.071 -999 -999 -999 -999
2007-08-21 11:23:39 51°27.657 2°59.379 -999 -999 -999 -999
2007-08-21 11:24:39 51°27.708 2°59.684 -999 -999 -999 -999
2007-08-21 11:25:39 51°27.758 2°59.985 -999 -999 -999 -999
2007-08-21 11:26:39 51°27.806 3°0.287 -999 -999 -999 -999
2007-08-21 11:27:39 51°27.856 3°0.588 -999 -999 -999 -999
2007-08-21 11:28:39 51°27.903 3°0.889 -999 -999 -999 -999
2007-08-21 11:29:39 51°27.929 3°1.198 -999 -999 -999 -999
2007-08-21 11:30:39 51°27.942 3°1.511 -999 -999 -999 -999
2007-08-21 11:31:39 51°27.959 3°1.824 -999 -999 -999 -999
2007-08-21 11:32:39 51°27.975 3°2.137 -999 -999 -999 -999
2007-08-21 11:33:39 51°28.001 3°2.448 -999 -999 -999 -999
2007-08-21 11:34:39 51°28.052 3°2.749 -999 -999 -999 -999
2007-08-21 11:35:39 51°28.113 3°3.015 -999 -999 -999 -999
2007-08-21 11:36:39 51°28.189 3°3.17 -999 -999 -999 -999
2007-08-21 11:37:39 51°28.229 3°3.319 -999 -999 -999 -999
2007-08-21 11:38:39 51°28.258 3°3.432 -999 -999 -999 -999
2007-08-21 11:39:39 51°28.276 3°3.474 -999 -999 -999 -999
2007-08-21 11:40:39 51°28.286 3°3.488 -999 -999 -999 -999
2007-08-21 11:41:39 51°28.288 3°3.491 -999 -999 -999 -999
2007-08-21 11:42:39 51°28.284 3°3.488 -999 -999 -999 -999
2007-08-21 11:43:39 51°28.281 3°3.49 -999 -999 -999 -999
2007-08-21 11:44:39 51°28.278 3°3.659 -999 -999 -999 -999
2007-08-21 11:45:39 51°28.177 3°3.928 -999 -999 -999 -999
2007-08-21 11:46:39 51°28.076 3°4.212 -999 -999 -999 -999
2007-08-21 11:47:39 51°27.978 3°4.496 -999 -999 -999 -999
2007-08-21 11:48:39 51°27.884 3°4.782 -999 -999 -999 -999
2007-08-21 11:49:39 51°27.782 3°5.063 -999 -999 -999 -999
2007-08-21 11:50:39 51°27.674 3°5.338 -999 -999 -999 -999
2007-08-21 11:51:39 51°27.568 3°5.615 -999 -999 -999 -999
2007-08-21 11:52:39 51°27.461 3°5.89 -999 -999 -999 -999
2007-08-21 11:53:39 51°27.353 3°6.163 -999 -999 -999 -999
2007-08-21 11:54:39 51°27.24 3°6.432 -999 -999 -999 -999
2007-08-21 11:55:39 51°27.124 3°6.696 -999 -999 -999 -999
2007-08-21 11:56:39 51°27.007 3°6.961 -999 -999 -999 -999
2007-08-21 11:57:39 51°26.892 3°7.229 -999 -999 -999 -999
2007-08-21 11:58:39 51°26.775 3°7.496 -999 -999 -999 -999
2007-08-21 11:59:39 51°26.658 3°7.761 -999 -999 -999 -999
2007-08-21 12:00:39 51°26.562 3°8.025 -999 -999 -999 -999
2007-08-21 12:01:39 51°26.498 3°8.207 -999 -999 -999 -999
2007-08-21 12:02:39 51°26.455 3°8.318 -999 -999 -999 -999
2007-08-21 12:03:39 51°26.432 3°8.385 -999 -999 -999 -999
2007-08-21 12:04:39 51°26.414 3°8.415 -999 -999 -999 -999
2007-08-21 12:05:39 51°26.397 3°8.429 -999 -999 -999 -999
2007-08-21 12:06:39 51°26.379 3°8.437 -999 -999 -999 -999
2007-08-21 12:07:39 51°26.361 3°8.442 -999 -999 -999 -999
2007-08-21 12:08:39 51°26.334 3°8.507 -999 -999 -999 -999
2007-08-21 12:09:39 51°26.268 3°8.713 -999 -999 -999 -999
2007-08-21 12:10:39 51°26.196 3°8.991 -999 -999 -999 -999
2007-08-21 12:11:39 51°26.117 3°9.28 -999 -999 -999 -999
2007-08-21 12:12:39 51°26.038 3°9.571 -999 -999 -999 -999
2007-08-21 12:13:39 51°25.96 3°9.863 -999 -999 -999 -999
2007-08-21 12:14:39 51°25.888 3°10.158 -999 -999 -999 -999
2007-08-21 12:15:39 51°25.81 3°10.451 -999 -999 -999 -999
2007-08-21 12:16:39 51°25.708 3°10.726 -999 -999 -999 -999
2007-08-21 12:17:39 51°25.616 3°11.015 -999 -999 -999 -999
2007-08-21 12:18:39 51°25.517 3°11.306 -999 -999 -999 -999
2007-08-21 12:19:39 51°25.423 3°11.601 -999 -999 -999 -999
2007-08-21 12:20:39 51°25.368 3°11.915 -999 -999 -999 -999
2007-08-21 12:21:39 51°25.348 3°12.236 -999 -999 -999 -999
2007-08-21 12:22:39 51°25.358 3°12.555 -999 -999 -999 -999
2007-08-21 12:23:39 51°25.374 3°12.871 -999 -999 -999 -999
2007-08-21 12:24:39 51°25.4 3°13.185 -999 -999 -999 -999
2007-08-21 12:25:39 51°25.425 3°13.5 -999 -999 -999 -999
2007-08-21 12:26:39 51°25.447 3°13.816 -999 -999 -999 -999
2007-08-21 12:27:39 51°25.473 3°14.132 -999 -999 -999 -999
2007-08-21 12:28:39 51°25.495 3°14.448 -999 -999 -999 -999
2007-08-21 12:29:39 51°25.53 3°14.759 -999 -999 -999 -999
2007-08-21 12:30:39 51°25.559 3°15.072 -999 -999 -999 -999
2007-08-21 12:31:39 51°25.593 3°15.383 -999 -999 -999 -999
2007-08-21 12:32:39 51°25.626 3°15.695 -999 -999 -999 -999
2007-08-21 12:33:39 51°25.682 3°15.996 -999 -999 -999 -999
2007-08-21 12:34:39 51°25.729 3°16.302 -999 -999 -999 -999
2007-08-21 12:35:39 51°25.767 3°16.613 -999 -999 -999 -999
2007-08-21 12:36:39 51°25.809 3°16.923 -999 -999 -999 -999
2007-08-21 12:37:39 51°25.84 3°17.239 -999 -999 -999 -999
2007-08-21 12:38:39 51°25.869 3°17.486 -999 -999 -999 -999
2007-08-21 12:39:39 51°25.88 3°17.675 -999 -999 -999 -999
2007-08-21 12:40:39 51°25.893 3°17.793 -999 -999 -999 -999
2007-08-21 12:41:39 51°25.894 3°17.838 -999 -999 -999 -999
2007-08-21 12:42:39 51°25.888 3°17.861 -999 -999 -999 -999
2007-08-21 12:43:39 51°25.877 3°17.88 -999 -999 -999 -999
2007-08-21 12:44:39 51°25.867 3°17.893 -999 -999 -999 -999
2007-08-21 12:45:39 51°25.856 3°17.931 -999 -999 -999 -999
2007-08-21 12:46:39 51°25.813 3°18.002 -999 -999 -999 -999
2007-08-21 12:47:39 51°25.74 3°17.975 -999 -999 -999 -999
2007-08-21 12:48:39 51°25.669 3°17.868 -999 -999 -999 -999
2007-08-21 12:49:39 51°25.542 3°17.701 -999 -999 -999 -999
2007-08-21 12:50:39 51°25.382 3°17.483 -999 -999 -999 -999
2007-08-21 12:51:39 51°25.22 3°17.252 -999 -999 -999 -999
2007-08-21 12:52:39 51°25.056 3°17.019 -999 -999 -999 -999
2007-08-21 12:53:39 51°24.893 3°16.784 -999 -999 -999 -999
2007-08-21 12:54:39 51°24.732 3°16.547 -999 -999 -999 -999
2007-08-21 12:55:39 51°24.575 3°16.312 -999 -999 -999 -999
2007-08-21 12:56:39 51°24.419 3°16.073 -999 -999 -999 -999
2007-08-21 12:57:39 51°24.262 3°15.829 -999 -999 -999 -999
2007-08-21 12:58:39 51°24.104 3°15.581 -999 -999 -999 -999
2007-08-21 12:59:39 51°23.943 3°15.332 -999 -999 -999 -999
2007-08-21 13:00:39 51°23.785 3°15.077 -999 -999 -999 -999
2007-08-21 13:01:39 51°23.623 3°14.829 -999 -999 -999 -999
2007-08-21 13:02:39 51°23.465 3°14.579 -999 -999 -999 -999
2007-08-21 13:03:39 51°23.307 3°14.333 -999 -999 -999 -999
2007-08-21 13:04:39 51°23.149 3°14.088 -999 -999 -999 -999
2007-08-21 13:05:39 51°22.991 3°13.838 -999 -999 -999 -999
2007-08-21 13:06:39 51°22.83 3°13.594 -999 -999 -999 -999
2007-08-21 13:07:39 51°22.684 3°13.389 -999 -999 -999 -999
2007-08-21 13:08:39 51°22.569 3°13.304 -999 -999 -999 -999
2007-08-21 13:09:39 51°22.526 3°13.202 -999 -999 -999 -999
2007-08-21 13:10:39 51°22.541 3°13.101 -999 -999 -999 -999
2007-08-21 13:11:39 51°22.591 3°13.084 -999 -999 -999 -999
2007-08-21 13:12:39 51°22.599 3°13.16 -999 -999 -999 -999
2007-08-21 13:13:39 51°22.593 3°13.199 -999 -999 -999 -999
2007-08-21 13:14:39 51°22.586 3°13.218 -999 -999 -999 -999
2007-08-21 13:15:39 51°22.579 3°13.229 -999 -999 -999 -999
2007-08-21 13:16:39 51°22.572 3°13.234 -999 -999 -999 -999
2007-08-21 13:17:39 51°22.579 3°13.259 -999 -999 -999 -999
2007-08-21 13:18:39 51°22.627 3°13.238 -999 -999 -999 -999
2007-08-21 13:19:39 51°22.631 3°13.056 -999 -999 -999 -999
2007-08-21 13:20:39 51°22.591 3°12.747 -999 -999 -999 -999
2007-08-21 13:21:39 51°22.55 3°12.405 -999 -999 -999 -999
2007-08-21 13:22:39 51°22.514 3°12.061 -999 -999 -999 -999
2007-08-21 13:23:39 51°22.477 3°11.717 -999 -999 -999 -999
2007-08-21 13:24:39 51°22.439 3°11.374 -999 -999 -999 -999
2007-08-21 13:25:39 51°22.402 3°11.031 -999 -999 -999 -999
2007-08-21 13:26:39 51°22.366 3°10.687 -999 -999 -999 -999
2007-08-21 13:27:39 51°22.326 3°10.343 -999 -999 -999 -999
2007-08-21 13:28:40 51°22.278 3°9.996 -999 -999 -999 -999
2007-08-21 13:29:39 51°22.193 3°9.675 -999 -999 -999 -999
2007-08-21 13:30:39 51°22.115 3°9.342 -999 -999 -999 -999
2007-08-21 13:31:39 51°22.06 3°8.997 -999 -999 -999 -999
2007-08-21 13:32:39 51°22.009 3°8.651 -999 -999 -999 -999
2007-08-21 13:33:39 51°21.957 3°8.305 -999 -999 -999 -999
2007-08-21 13:34:39 51°21.907 3°7.959 -999 -999 -999 -999
2007-08-21 13:35:39 51°21.862 3°7.614 -999 -999 -999 -999
2007-08-21 13:36:39 51°21.817 3°7.272 -999 -999 -999 -999
2007-08-21 13:37:39 51°21.772 3°6.93 -999 -999 -999 -999
2007-08-21 13:38:39 51°21.727 3°6.589 -999 -999 -999 -999
2007-08-21 13:39:39 51°21.675 3°6.254 -999 -999 -999 -999
2007-08-21 13:40:39 51°21.616 3°5.92 -999 -999 -999 -999
2007-08-21 13:41:39 51°21.554 3°5.585 -999 -999 -999 -999
2007-08-21 13:42:39 51°21.482 3°5.254 -999 -999 -999 -999
2007-08-21 13:43:39 51°21.413 3°4.92 -999 -999 -999 -999
2007-08-21 13:44:39 51°21.343 3°4.586 -999 -999 -999 -999
2007-08-21 13:45:39 51°21.272 3°4.251 -999 -999 -999 -999
2007-08-21 13:46:39 51°21.202 3°3.917 -999 -999 -999 -999
2007-08-21 13:47:39 51°21.138 3°3.584 -999 -999 -999 -999
2007-08-21 13:48:39 51°21.072 3°3.252 -999 -999 -999 -999
2007-08-21 13:49:39 51°21.008 3°2.917 -999 -999 -999 -999
2007-08-21 13:50:39 51°20.943 3°2.583 -999 -999 -999 -999
2007-08-21 13:51:39 51°20.876 3°2.244 -999 -999 -999 -999
2007-08-21 13:52:39 51°20.812 3°1.902 -999 -999 -999 -999
2007-08-21 13:53:40 51°20.743 3°1.557 -999 -999 -999 -999
2007-08-21 13:54:39 51°20.677 3°1.224 -999 -999 -999 -999
2007-08-21 13:55:40 51°20.61 3°0.885 -999 -999 -999 -999
2007-08-21 13:56:39 51°20.543 3°0.554 -999 -999 -999 -999
2007-08-21 13:57:39 51°20.473 3°0.216 -999 -999 -999 -999
2007-08-21 13:58:39 51°20.402 2°59.879 -999 -999 -999 -999
2007-08-21 13:59:39 51°20.33 2°59.544 -999 -999 -999 -999
2007-08-21 14:00:39 51°20.259 2°59.208 -999 -999 -999 -999
2007-08-21 14:01:39 51°20.187 2°58.873 -999 -999 -999 -999
2007-08-21 14:02:40 51°20.116 2°58.529 -999 -999 -999 -999
2007-08-21 14:03:39 51°20.025 2°58.218 -999 -999 -999 -999
2007-08-21 14:04:40 51°19.836 2°58.026 -999 -999 -999 -999
2007-08-21 14:05:39 51°19.675 2°57.787 -999 -999 -999 -999
2007-08-21 14:06:39 51°19.577 2°57.467 -999 -999 -999 -999
2007-08-21 14:07:39 51°19.485 2°57.139 -999 -999 -999 -999
2007-08-21 14:08:39 51°19.419 2°56.798 -999 -999 -999 -999
2007-08-21 14:09:40 51°19.375 2°56.443 -999 -999 -999 -999
2007-08-21 14:10:39 51°19.333 2°56.099 -999 -999 -999 -999
2007-08-21 14:11:40 51°19.287 2°55.744 -999 -999 -999 -999
2007-08-21 14:12:39 51°19.243 2°55.4 -999 -999 -999 -999
2007-08-21 14:13:40 51°19.198 2°55.045 -999 -999 -999 -999
2007-08-21 14:14:39 51°19.151 2°54.7 -999 -999 -999 -999
2007-08-21 14:15:39 51°19.097 2°54.352 -999 -999 -999 -999
2007-08-21 14:16:40 51°19.043 2°53.997 -999 -999 -999 -999
2007-08-21 14:17:39 51°18.99 2°53.654 -999 -999 -999 -999
2007-08-21 14:18:40 51°18.93 2°53.302 -999 -999 -999 -999
2007-08-21 14:19:39 51°18.873 2°52.961 -999 -999 -999 -999
2007-08-21 14:20:40 51°18.814 2°52.608 -999 -999 -999 -999
2007-08-21 14:21:39 51°18.756 2°52.267 -999 -999 -999 -999
2007-08-21 14:22:40 51°18.698 2°51.915 -999 -999 -999 -999
2007-08-21 14:23:39 51°18.642 2°51.59 -999 -999 -999 -999
2007-08-21 14:24:39 51°18.603 2°51.353 -999 -999 -999 -999
2007-08-21 14:25:39 51°18.555 2°51.17 -999 -999 -999 -999
2007-08-21 14:26:39 51°18.51 2°51.033 -999 -999 -999 -999
2007-08-21 14:27:40 51°18.487 2°50.978 -999 -999 -999 -999
2007-08-21 14:28:39 51°18.467 2°50.959 -999 -999 -999 -999
2007-08-21 14:29:40 51°18.444 2°50.935 -999 -999 -999 -999
2007-08-21 14:30:39 51°18.422 2°50.909 -999 -999 -999 -999
2007-08-21 14:31:39 51°18.396 2°50.868 -999 -999 -999 -999
2007-08-21 14:32:39 51°18.318 2°50.768 -999 -999 -999 -999
2007-08-21 14:33:39 51°18.153 2°50.876 -999 -999 -999 -999
2007-08-21 14:34:40 51°17.992 2°51.084 -999 -999 -999 -999
2007-08-21 14:35:39 51°17.841 2°51.293 -999 -999 -999 -999
2007-08-21 14:36:40 51°17.685 2°51.515 -999 -999 -999 -999
2007-08-21 14:37:39 51°17.538 2°51.734 -999 -999 -999 -999
2007-08-21 14:38:40 51°17.394 2°51.974 -999 -999 -999 -999
2007-08-21 14:39:39 51°17.256 2°52.205 -999 -999 -999 -999
2007-08-21 14:40:39 51°17.118 2°52.445 -999 -999 -999 -999
2007-08-21 14:41:39 51°16.977 2°52.683 -999 -999 -999 -999
2007-08-21 14:42:39 51°16.836 2°52.923 -999 -999 -999 -999
2007-08-21 14:43:40 51°16.694 2°53.169 -999 -999 -999 -999
2007-08-21 14:44:39 51°16.559 2°53.405 -999 -999 -999 -999
2007-08-21 14:45:40 51°16.421 2°53.649 -999 -999 -999 -999
2007-08-21 14:46:39 51°16.288 2°53.887 -999 -999 -999 -999
2007-08-21 14:47:40 51°16.201 2°54.062 -999 -999 -999 -999
2007-08-21 14:48:39 51°16.181 2°54.161 -999 -999 -999 -999
2007-08-21 14:49:39 51°16.184 2°54.246 -999 -999 -999 -999
2007-08-21 14:50:40 51°16.214 2°54.304 -999 -999 -999 -999
2007-08-21 14:51:39 51°16.248 2°54.3 -999 -999 -999 -999
2007-08-21 14:52:40 51°16.256 2°54.277 -999 -999 -999 -999
2007-08-21 14:53:40 51°16.252 2°54.249 -999 -999 -999 -999
2007-08-21 14:54:40 51°16.239 2°54.223 -999 -999 -999 -999
2007-08-21 14:55:39 51°16.221 2°54.199 -999 -999 -999 -999
2007-08-21 14:56:40 51°16.157 2°54.113 -999 -999 -999 -999
2007-08-21 14:57:40 51°15.989 2°54.089 -999 -999 -999 -999
2007-08-21 14:58:39 51°15.784 2°54.153 -999 -999 -999 -999
2007-08-21 14:59:40 51°15.572 2°54.255 -999 -999 -999 -999
2007-08-21 15:00:39 51°15.374 2°54.363 -999 -999 -999 -999
2007-08-21 15:01:40 51°15.174 2°54.485 -999 -999 -999 -999
2007-08-21 15:02:39 51°14.981 2°54.606 -999 -999 -999 -999
2007-08-21 15:03:40 51°14.782 2°54.738 -999 -999 -999 -999
2007-08-21 15:04:39 51°14.59 2°54.868 -999 -999 -999 -999
2007-08-21 15:05:40 51°14.403 2°55.036 -999 -999 -999 -999
2007-08-21 15:06:40 51°14.257 2°55.274 -999 -999 -999 -999
2007-08-21 15:07:40 51°14.118 2°55.417 -999 -999 -999 -999
2007-08-21 15:08:40 51°14.015 2°55.489 -999 -999 -999 -999
2007-08-21 15:09:40 51°13.903 2°55.573 -999 -999 -999 -999
2007-08-21 15:10:40 51°13.798 2°55.663 -999 -999 -999 -999
2007-08-21 15:11:39 51°13.722 2°55.776 -999 -999 -999 -999
2007-08-21 15:12:40 51°13.666 2°55.894 -999 -999 -999 -999
2007-08-21 15:13:39 51°13.628 2°55.988 -999 -999 -999 -999
2007-08-21 15:14:40 51°13.609 2°56.062 -999 -999 -999 -999
2007-08-21 15:15:39 51°13.602 2°56.095 -999 -999 -999 -999
2007-08-21 15:16:40 51°13.601 2°56.1 -999 -999 -999 -999